Time;durP1;ratioP1;P1;durP2;ratioP2;P2;SDS_P1;SDS_P2;PMS_P1;PMS_P2;Temp;Humidity;BMP_temperature;BMP_pressure;BME280_temperature;BME280_humidity;BME280_pressure;Samples;Min_cycle;Max_cycle;Signal;HPM_P1;HPM_P2
2022/08/10 00:00:22;;;;;;;6.60;2.20;;;;;;;18.39;55.67;94651.28;4998404;28;20199;-64
2022/08/10 00:03:06;;;;;;;5.23;2.60;;;;;;;18.21;56.29;94659.50;5009572;28;20231;-64
2022/08/10 00:05:53;;;;;;;6.23;2.23;;;;;;;18.12;56.54;94652.66;5003879;28;20223;-64
2022/08/10 00:08:37;;;;;;;6.43;2.20;;;;;;;17.98;56.89;94651.13;5012891;28;20219;-65
2022/08/10 00:11:22;;;;;;;3.27;2.10;;;;;;;17.81;57.41;94649.50;5007261;28;20338;-65
2022/08/10 00:14:06;;;;;;;2.50;1.90;;;;;;;17.88;57.45;94642.81;5011057;28;20214;-64
2022/08/10 00:16:50;;;;;;;3.57;1.90;;;;;;;17.75;57.79;94649.16;5011810;28;20206;-64
2022/08/10 00:19:34;;;;;;;4.80;2.27;;;;;;;17.95;56.89;94643.91;5003019;28;20199;-64
2022/08/10 00:22:19;;;;;;;2.83;1.97;;;;;;;17.69;58.10;94651.66;5008802;28;20586;-63
2022/08/10 00:25:04;;;;;;;2.20;2.00;;;;;;;17.74;58.05;94647.69;5007854;28;20204;-64
2022/08/10 00:27:48;;;;;;;1.93;1.73;;;;;;;17.54;58.45;94649.34;5003471;28;20216;-65
2022/08/10 00:30:32;;;;;;;2.80;2.17;;;;;;;17.64;58.01;94647.13;5007428;28;20287;-64
2022/08/10 00:33:17;;;;;;;3.97;1.90;;;;;;;17.67;58.03;94640.19;5011184;28;20716;-64
2022/08/10 00:36:01;;;;;;;3.37;1.70;;;;;;;17.70;58.03;94641.81;5012593;28;20208;-64
2022/08/10 00:38:45;;;;;;;5.27;2.13;;;;;;;17.75;57.68;94637.84;5012986;28;20414;-64
2022/08/10 00:41:29;;;;;;;7.10;2.17;;;;;;;17.56;58.42;94644.53;5012104;28;20279;-64
2022/08/10 00:44:15;;;;;;;7.30;2.37;;;;;;;17.52;58.68;94643.59;5007719;28;20880;-64
2022/08/10 00:46:59;;;;;;;6.60;2.27;;;;;;;17.82;57.65;94636.81;5012274;28;20302;-64
2022/08/10 00:49:44;;;;;;;2.77;2.00;;;;;;;17.89;57.11;94635.78;5012847;28;20200;-64
2022/08/10 00:52:29;;;;;;;4.40;2.17;;;;;;;17.92;57.16;94634.53;5009026;28;20204;-64
2022/08/10 00:55:14;;;;;;;4.67;1.93;;;;;;;17.92;57.07;94634.53;5001856;28;20211;-65
2022/08/10 00:57:59;;;;;;;3.40;2.40;;;;;;;17.79;57.20;94638.06;5012654;28;20270;-64
2022/08/10 01:00:46;;;;;;;2.73;2.07;;;;;;;17.75;57.28;94638.56;5005151;28;20204;-66
2022/08/10 01:03:30;;;;;;;3.70;2.13;;;;;;;17.73;57.33;94632.78;5008900;28;20204;-64
2022/08/10 01:06:28;;;;;;;4.33;2.17;;;;;;;17.68;57.69;94633.91;5007021;28;20219;-65
2022/08/10 01:09:26;;;;;;;2.03;1.93;;;;;;;17.53;58.03;94630.91;4997864;28;20208;-66
2022/08/10 01:12:15;;;;;;;3.53;2.27;;;;;;;17.44;58.22;94637.44;5003589;28;20235;-64
2022/08/10 01:15:29;;;;;;;3.23;1.90;;;;;;;17.22;58.91;94640.47;5003105;28;20215;-65
2022/08/10 01:18:25;;;;;;;3.57;2.00;;;;;;;17.14;59.02;94633.59;5003412;28;20208;-64
2022/08/10 01:21:27;;;;;;;7.03;2.30;;;;;;;16.97;59.46;94632.63;5001726;28;20672;-64
2022/08/10 01:24:32;;;;;;;5.33;2.43;;;;;;;16.92;59.76;94630.94;5011143;28;20203;-66
2022/08/10 01:28:02;;;;;;;3.43;2.47;;;;;;;16.76;60.47;94629.25;5009983;28;20227;-65
2022/08/10 01:30:50;;;;;;;3.03;2.10;;;;;;;16.79;60.37;94628.00;4989490;28;20196;-64
2022/08/10 01:33:40;;;;;;;4.57;2.33;;;;;;;16.75;60.38;94622.84;4996329;28;20734;-65
2022/08/10 01:36:38;;;;;;;5.53;2.03;;;;;;;16.78;60.21;94626.53;5010275;28;20688;-64
2022/08/10 01:39:26;;;;;;;3.07;2.33;;;;;;;16.47;60.92;94616.19;5009934;28;20561;-66
2022/08/10 01:42:15;;;;;;;3.93;2.40;;;;;;;16.54;61.19;94620.84;5009434;28;20208;-64
2022/08/10 01:45:03;;;;;;;3.27;2.20;;;;;;;16.40;61.25;94622.84;5007645;28;20279;-67
2022/08/10 01:50:57;;;;;;;3.80;2.37;;;;;;;16.38;61.24;94610.66;5008116;28;20200;-64
2022/08/10 01:53:50;;;;;;;2.83;2.30;;;;;;;16.49;61.06;94616.31;5005162;28;20193;-66
2022/08/10 01:56:47;;;;;;;4.90;2.00;;;;;;;16.47;60.98;94610.53;5004446;28;20200;-66
2022/08/10 01:59:33;;;;;;;3.47;2.13;;;;;;;16.34;61.44;94625.28;5008135;28;20202;-64
2022/08/10 02:02:19;;;;;;;4.30;2.30;;;;;;;16.38;61.28;94607.81;5002827;28;20207;-64
2022/08/10 02:05:05;;;;;;;2.27;2.00;;;;;;;16.40;61.26;94613.63;4999391;28;20225;-66
2022/08/10 02:07:50;;;;;;;4.47;2.27;;;;;;;16.36;61.30;94616.19;5002826;28;20271;-65
2022/08/10 02:10:38;;;;;;;3.33;2.13;;;;;;;16.38;61.45;94619.88;4998044;28;20204;-64
2022/08/10 02:13:23;;;;;;;2.50;2.30;;;;;;;16.37;61.09;94618.41;4998234;28;20742;-65
2022/08/10 02:16:09;;;;;;;2.53;2.27;;;;;;;16.32;61.54;94611.03;5001810;28;20199;-64
2022/08/10 02:18:56;;;;;;;3.00;1.77;;;;;;;16.17;62.12;94617.16;5003279;28;20219;-65
2022/08/10 02:21:42;;;;;;;2.90;2.60;;;;;;;16.11;62.55;94619.59;5005120;28;20235;-64
2022/08/10 02:24:27;;;;;;;5.47;2.63;;;;;;;16.06;62.47;94617.88;4996622;28;20601;-64
2022/08/10 02:27:14;;;;;;;11.87;2.57;;;;;;;16.06;62.19;94612.22;5004016;28;20235;-65
2022/08/10 02:29:59;;;;;;;3.17;2.30;;;;;;;16.18;61.89;94613.72;5000330;28;20196;-66
2022/08/10 02:32:45;;;;;;;4.93;2.77;;;;;;;16.20;62.08;94615.94;4996596;28;20604;-65
2022/08/10 02:35:31;;;;;;;2.93;2.60;;;;;;;16.21;61.83;94616.69;5004360;28;20206;-65
2022/08/10 02:38:20;;;;;;;4.67;2.57;;;;;;;16.17;61.76;94611.50;4998776;28;20235;-64
2022/08/10 02:41:14;;;;;;;6.33;2.20;;;;;;;16.16;62.07;94598.72;5008740;28;20285;-65
2022/08/10 02:44:06;;;;;;;3.57;2.50;;;;;;;16.04;62.33;94603.66;4998808;28;20232;-64
2022/08/10 02:46:57;;;;;;;5.87;2.80;;;;;;;15.96;62.69;94608.78;5008312;28;20199;-63
2022/08/10 02:49:48;;;;;;;6.27;3.30;;;;;;;15.97;62.56;94610.25;5000619;28;20200;-64
2022/08/10 02:52:41;;;;;;;3.50;3.07;;;;;;;15.88;62.88;94597.69;5002809;28;20197;-64
2022/08/10 02:55:43;;;;;;;4.30;2.60;;;;;;;15.86;63.14;94602.50;5001825;28;20274;-63
2022/08/10 02:58:33;;;;;;;3.93;2.50;;;;;;;15.86;62.94;94591.22;4994862;28;20222;-65
2022/08/10 03:01:21;;;;;;;3.03;2.27;;;;;;;15.92;62.72;94597.25;5005212;28;20200;-64
2022/08/10 03:04:07;;;;;;;4.47;2.40;;;;;;;15.88;62.92;94592.06;4999525;28;20204;-65
2022/08/10 03:07:01;;;;;;;5.93;2.67;;;;;;;15.77;63.04;94587.88;5005793;28;20200;-64
2022/08/10 03:09:47;;;;;;;4.67;2.80;;;;;;;16.00;62.51;94592.06;4998751;28;20659;-65
2022/08/10 03:12:35;;;;;;;4.73;2.70;;;;;;;15.73;63.27;94581.97;4990624;28;20552;-64
2022/08/10 03:15:21;;;;;;;10.67;3.33;;;;;;;15.61;63.93;94575.56;4994641;28;20228;-64
2022/08/10 03:18:06;;;;;;;8.37;3.40;;;;;;;15.70;63.85;94585.25;5003774;28;20192;-64
2022/08/10 03:20:52;;;;;;;5.27;2.63;;;;;;;15.61;64.15;94575.56;4998069;28;20214;-64
2022/08/10 03:23:39;;;;;;;9.63;3.53;;;;;;;15.70;63.94;94576.78;5008425;28;20206;-64
2022/08/10 03:26:24;;;;;;;4.00;3.30;;;;;;;15.72;63.67;94585.41;5000675;28;20649;-62
2022/08/10 03:29:10;;;;;;;3.53;2.93;;;;;;;15.48;64.21;94573.28;4998334;28;20212;-62
2022/08/10 03:31:55;;;;;;;4.13;2.47;;;;;;;15.53;64.19;94586.34;5001843;28;20656;-63
2022/08/10 03:34:40;;;;;;;4.60;2.90;;;;;;;15.47;64.25;94588.75;5008466;28;20227;-62
2022/08/10 03:37:26;;;;;;;8.20;2.90;;;;;;;15.34;64.80;94586.50;4994723;28;20202;-66
2022/08/10 03:40:10;;;;;;;4.47;3.13;;;;;;;15.15;65.36;94581.75;5001171;28;20196;-66
2022/08/10 03:42:57;;;;;;;4.77;3.30;;;;;;;15.00;66.07;94587.09;4998475;28;20204;-65
2022/08/10 03:45:41;;;;;;;5.67;3.10;;;;;;;15.02;66.19;94584.38;5004114;28;20250;-65
2022/08/10 03:48:29;;;;;;;6.07;3.70;;;;;;;15.14;66.00;94582.34;5006476;28;20231;-66
2022/08/10 03:51:14;;;;;;;4.87;3.43;;;;;;;15.12;66.10;94582.25;5011977;28;20665;-65
2022/08/10 03:53:59;;;;;;;8.27;3.40;;;;;;;15.00;66.69;94582.16;5000949;28;20204;-65
2022/08/10 03:56:44;;;;;;;4.07;3.37;;;;;;;15.18;66.03;94574.88;5007417;28;20703;-64
2022/08/10 03:59:30;;;;;;;5.13;3.20;;;;;;;14.88;66.76;94576.47;5001707;28;20668;-66
2022/08/10 04:02:15;;;;;;;5.07;3.40;;;;;;;15.03;66.75;94574.56;5004719;28;20291;-66
2022/08/10 04:05:00;;;;;;;6.20;3.20;;;;;;;15.06;66.51;94579.03;5005705;28;20281;-65
2022/08/10 04:07:44;;;;;;;3.80;3.50;;;;;;;15.05;66.55;94583.19;5003651;28;20251;-65
2022/08/10 04:10:28;;;;;;;3.60;3.13;;;;;;;15.01;67.03;94588.56;5005071;28;20262;-66
2022/08/10 04:13:13;;;;;;;4.90;3.30;;;;;;;15.11;66.79;94592.03;5004658;28;20205;-66
2022/08/10 04:15:57;;;;;;;4.17;3.50;;;;;;;15.21;66.14;94598.34;5008939;28;20208;-66
2022/08/10 04:18:41;;;;;;;3.87;3.40;;;;;;;15.05;66.79;94597.28;5000631;28;20273;-65
2022/08/10 04:21:30;;;;;;;4.27;3.40;;;;;;;15.06;66.84;94607.25;5010231;28;20196;-65
2022/08/10 04:24:19;;;;;;;6.13;3.47;;;;;;;15.08;66.72;94604.53;5002202;28;20295;-65
2022/08/10 04:27:03;;;;;;;8.63;3.53;;;;;;;15.04;66.92;94604.28;5004112;28;20252;-66
2022/08/10 04:29:50;;;;;;;3.83;3.00;;;;;;;15.12;66.57;94599.88;5000805;28;20204;-65
2022/08/10 04:32:36;;;;;;;5.43;3.73;;;;;;;15.27;66.11;94598.75;5001968;28;20196;-63
2022/08/10 04:35:23;;;;;;;5.93;2.80;;;;;;;15.31;66.02;94599.00;5002564;28;20295;-63
2022/08/10 04:38:08;;;;;;;4.20;3.13;;;;;;;15.28;65.97;94594.56;5008544;28;20219;-66
2022/08/10 04:40:53;;;;;;;5.00;3.10;;;;;;;15.22;66.20;94597.75;5002648;28;20205;-66
2022/08/10 04:43:38;;;;;;;4.93;2.80;;;;;;;15.29;66.35;94596.06;5008690;28;20539;-65
2022/08/10 04:46:22;;;;;;;4.30;2.90;;;;;;;15.33;66.47;94601.94;5009860;28;20279;-63
2022/08/10 04:49:06;;;;;;;3.60;3.07;;;;;;;15.42;66.26;94598.31;5002842;28;20224;-62
2022/08/10 04:51:50;;;;;;;3.40;3.10;;;;;;;15.49;66.03;94594.50;5008158;28;20500;-66
2022/08/10 04:54:34;;;;;;;3.00;2.70;;;;;;;15.72;65.27;94591.78;5005140;28;20291;-66
2022/08/10 04:57:18;;;;;;;3.30;2.67;;;;;;;15.57;65.39;94591.50;5002998;28;20196;-68
2022/08/10 05:00:04;;;;;;;8.40;3.17;;;;;;;15.82;64.97;94596.59;5002807;28;20204;-66
2022/08/10 05:02:49;;;;;;;9.30;2.90;;;;;;;16.05;63.97;94593.78;5002848;28;20204;-68
2022/08/10 05:05:33;;;;;;;5.00;3.03;;;;;;;16.31;63.46;94597.50;5005083;28;20224;-63
2022/08/10 05:08:17;;;;;;;14.47;3.73;;;;;;;16.44;62.98;94600.44;5007558;28;20240;-62
2022/08/10 05:11:02;;;;;;;3.77;3.07;;;;;;;16.66;62.81;94592.59;5004125;28;20294;-63
2022/08/10 05:13:46;;;;;;;4.43;2.90;;;;;;;16.81;62.11;94596.97;5001330;28;20204;-65
2022/08/10 05:16:30;;;;;;;5.70;3.10;;;;;;;16.98;61.40;94605.81;5005879;28;20479;-65
2022/08/10 05:19:14;;;;;;;5.83;2.70;;;;;;;16.35;62.97;94615.47;5009799;28;20265;-65
2022/08/10 05:21:59;;;;;;;5.43;2.77;;;;;;;16.40;63.68;94605.88;5008421;28;20199;-66
2022/08/10 05:24:43;;;;;;;6.43;2.80;;;;;;;16.46;63.15;94603.41;5005819;28;20207;-68
2022/08/10 05:27:27;;;;;;;4.63;2.80;;;;;;;16.43;63.28;94604.63;4997184;28;20220;-66
2022/08/10 05:30:14;;;;;;;10.73;2.90;;;;;;;16.54;62.99;94612.34;4998429;28;20226;-67
2022/08/10 05:32:59;;;;;;;4.90;2.70;;;;;;;16.78;62.55;94610.28;5000746;28;20559;-65
2022/08/10 05:35:43;;;;;;;5.70;2.90;;;;;;;16.75;62.74;94610.78;5002833;28;20232;-66
2022/08/10 05:38:29;;;;;;;5.80;3.10;;;;;;;16.77;62.47;94613.72;5008765;28;20204;-67
2022/08/10 05:41:14;;;;;;;5.73;2.87;;;;;;;16.79;62.79;94620.25;4998021;28;20652;-62
2022/08/10 05:43:59;;;;;;;8.00;2.80;;;;;;;16.92;62.53;94616.03;5000205;28;20552;-65
2022/08/10 05:46:43;;;;;;;5.07;2.77;;;;;;;16.92;62.52;94613.19;5007693;28;20301;-63
2022/08/10 05:49:27;;;;;;;4.13;2.50;;;;;;;16.94;62.45;94610.50;4997578;28;20267;-66
2022/08/10 05:52:11;;;;;;;8.97;2.70;;;;;;;17.10;62.32;94608.59;5004866;28;20211;-63
2022/08/10 05:54:55;;;;;;;7.47;2.93;;;;;;;17.50;61.28;94600.94;5000818;28;20204;-64
2022/08/10 05:57:40;;;;;;;5.53;2.90;;;;;;;17.16;61.63;94613.88;5006100;28;20600;-65
2022/08/10 06:00:25;;;;;;;3.10;2.57;;;;;;;17.50;61.15;94612.28;4999698;28;20204;-63
2022/08/10 06:03:10;;;;;;;5.10;3.10;;;;;;;17.47;60.93;94610.69;5004966;28;20215;-66
2022/08/10 06:05:57;;;;;;;3.30;2.53;;;;;;;17.72;60.89;94619.22;5007456;28;20635;-66
2022/08/10 06:08:43;;;;;;;2.93;2.40;;;;;;;17.90;60.25;94606.06;4999238;28;20220;-66
2022/08/10 06:11:29;;;;;;;4.07;2.67;;;;;;;17.59;60.59;94617.78;4995229;28;20204;-66
2022/08/10 06:17:19;;;;;;;4.27;2.47;;;;;;;17.88;60.11;94617.31;5003287;28;20200;-66
2022/08/10 06:20:04;;;;;;;16.53;3.07;;;;;;;17.91;60.47;94609.63;5000106;28;20637;-67
2022/08/10 06:22:48;;;;;;;3.33;2.50;;;;;;;18.10;60.67;94601.50;4999134;28;20211;-66
2022/08/10 06:25:32;;;;;;;3.90;2.50;;;;;;;18.37;59.55;94611.44;5005166;28;20203;-66
2022/08/10 06:28:18;;;;;;;2.87;1.90;;;;;;;18.29;59.83;94613.81;4997980;28;20362;-66
2022/08/10 06:31:05;;;;;;;5.53;2.40;;;;;;;18.51;59.72;94612.19;4994638;28;20200;-67
2022/08/10 06:33:51;;;;;;;4.80;2.90;;;;;;;18.43;59.87;94611.75;5006250;28;20617;-67
2022/08/10 06:36:36;;;;;;;3.50;2.30;;;;;;;18.72;58.77;94606.22;4998196;28;20381;-66
2022/08/10 06:39:21;;;;;;;6.27;2.23;;;;;;;18.85;58.67;94619.66;4999236;28;20673;-65
2022/08/10 06:42:19;;;;;;;2.87;2.33;;;;;;;19.28;58.54;94616.88;4999074;28;20235;-63
2022/08/10 06:45:13;;;;;;;4.37;2.27;;;;;;;18.83;58.94;94616.72;5002189;28;20199;-65
2022/08/10 06:48:04;;;;;;;4.23;2.50;;;;;;;19.46;58.10;94611.38;4999359;28;20231;-63
2022/08/10 06:50:53;;;;;;;6.63;2.67;;;;;;;19.55;57.89;94607.59;5009346;28;20199;-64
2022/08/10 06:53:44;;;;;;;2.10;1.90;;;;;;;19.50;56.88;94608.78;5003980;28;20196;-64
2022/08/10 06:56:33;;;;;;;2.70;2.27;;;;;;;19.63;57.19;94605.13;5001597;28;20204;-64
2022/08/10 06:59:19;;;;;;;5.10;1.90;;;;;;;20.18;56.63;94607.72;4998894;28;20201;-63
2022/08/10 07:02:07;;;;;;;4.80;2.30;;;;;;;20.03;57.12;94594.22;4995827;28;20669;-66
2022/08/10 07:05:01;;;;;;;5.07;1.95;;;;;;;20.12;55.72;94604.59;4993469;28;20220;-65
2022/08/10 07:07:47;;;;;;;3.30;2.35;;;;;;;19.90;56.50;94597.84;5000423;28;20211;-67
2022/08/10 07:10:32;;;;;;;3.55;2.05;;;;;;;19.93;56.06;94588.06;4993325;28;20200;-67
2022/08/10 07:13:18;;;;;;;2.63;2.17;;;;;;;19.82;55.71;94597.47;4998823;28;20208;-67
2022/08/10 07:16:07;;;;;;;4.97;2.00;;;;;;;19.90;55.20;94597.84;5002821;28;20196;-68
2022/08/10 07:18:51;;;;;;;5.78;2.08;;;;;;;19.74;55.59;94592.88;5004238;28;20200;-68
2022/08/10 07:21:38;;;;;;;4.90;1.95;;;;;;;20.29;54.89;94589.00;5009613;28;20200;-68
2022/08/10 07:24:24;;;;;;;2.83;1.50;;;;;;;20.49;54.38;94587.81;5002517;28;20220;-65
2022/08/10 07:27:10;;;;;;;4.70;2.47;;;;;;;20.35;54.18;94578.66;5008319;28;20227;-67
2022/08/10 07:29:56;;;;;;;3.80;2.08;;;;;;;19.96;54.20;94583.91;5009340;28;20282;-66
2022/08/10 07:32:44;;;;;;;3.85;1.90;;;;;;;20.46;54.56;94589.13;5006077;28;20199;-65
2022/08/10 07:35:31;;;;;;;3.40;1.88;;;;;;;20.59;53.61;94591.13;5004343;28;20234;-64
2022/08/10 07:38:19;;;;;;;2.08;1.77;;;;;;;20.41;52.96;94587.47;5007037;28;20211;-66
2022/08/10 07:41:06;;;;;;;5.10;2.22;;;;;;;20.63;52.33;94590.56;5003443;28;20285;-65
2022/08/10 07:43:51;;;;;;;3.08;1.83;;;;;;;20.49;52.79;94592.81;5000191;28;20690;-67
2022/08/10 07:46:40;;;;;;;3.00;1.80;;;;;;;20.98;52.54;94589.97;4999125;28;20199;-66
2022/08/10 07:49:26;;;;;;;8.07;2.05;;;;;;;20.67;52.45;94595.72;5009353;28;20469;-67
2022/08/10 07:52:10;;;;;;;3.80;1.90;;;;;;;20.34;52.84;94605.66;5006878;28;20648;-67
2022/08/10 07:54:56;;;;;;;6.22;1.67;;;;;;;20.47;52.92;94587.75;4996848;28;20250;-68
2022/08/10 07:57:42;;;;;;;2.97;1.90;;;;;;;21.00;52.24;94590.78;5001874;28;20224;-68
2022/08/10 08:00:30;;;;;;;5.35;1.70;;;;;;;21.21;51.28;94586.72;5001931;28;20211;-67
2022/08/10 08:03:15;;;;;;;3.28;1.70;;;;;;;21.39;52.10;94587.47;5004933;28;20232;-65
2022/08/10 08:06:01;;;;;;;7.82;2.10;;;;;;;21.45;50.44;94592.69;4999333;28;20254;-67
2022/08/10 08:08:46;;;;;;;5.82;1.73;;;;;;;21.68;48.62;94595.06;5002977;28;20227;-66
2022/08/10 08:11:32;;;;;;;4.07;1.60;;;;;;;21.43;48.42;94594.72;5002649;28;20199;-67
2022/08/10 08:14:17;;;;;;;3.45;1.70;;;;;;;21.98;47.98;94598.41;5005225;28;20212;-68
2022/08/10 08:17:01;;;;;;;9.63;1.55;;;;;;;21.71;47.34;94604.44;4998553;28;20622;-67
2022/08/10 08:19:49;;;;;;;4.00;1.35;;;;;;;21.86;47.39;94603.63;5004669;28;20200;-62
2022/08/10 08:22:35;;;;;;;3.17;1.75;;;;;;;21.80;46.34;94606.22;5001747;28;20211;-66
2022/08/10 08:25:20;;;;;;;4.07;1.45;;;;;;;21.99;46.94;94605.59;5007087;28;20204;-67
2022/08/10 08:28:04;;;;;;;5.10;1.40;;;;;;;22.33;46.34;94608.34;4998343;28;20228;-67
2022/08/10 08:30:49;;;;;;;5.13;1.63;;;;;;;22.26;46.58;94603.78;5000757;28;20573;-65
2022/08/10 08:33:34;;;;;;;6.95;1.80;;;;;;;22.46;46.46;94596.72;5005133;28;20230;-68
2022/08/10 08:36:19;;;;;;;2.28;1.40;;;;;;;22.45;45.99;94603.81;4994861;28;20212;-63
2022/08/10 08:39:04;;;;;;;2.25;1.48;;;;;;;22.19;44.72;94612.09;5010080;28;20199;-65
2022/08/10 08:42:06;;;;;;;3.05;1.48;;;;;;;22.54;43.60;94616.25;5009274;28;20199;-63
2022/08/10 08:45:09;;;;;;;6.40;1.55;;;;;;;22.60;44.34;94602.22;4999883;28;20589;-64
2022/08/10 08:48:17;;;;;;;2.47;1.15;;;;;;;22.36;43.80;94601.31;5005651;28;20287;-64
2022/08/10 08:51:17;;;;;;;3.92;1.55;;;;;;;22.68;43.24;94602.53;5009604;28;20211;-65
2022/08/10 08:54:16;;;;;;;1.42;1.30;;;;;;;22.57;43.19;94603.53;5008117;28;20211;-65
2022/08/10 08:57:19;;;;;;;4.32;1.40;;;;;;;22.85;43.52;94593.16;5000998;28;20234;-71
2022/08/10 09:00:09;;;;;;;4.03;1.50;;;;;;;23.51;40.43;94585.50;4999749;28;20282;-68
2022/08/10 09:03:26;;;;;;;2.92;1.60;;;;;;;23.66;40.92;94595.25;5007795;28;20231;-72
2022/08/10 09:06:45;;;;;;;2.10;1.08;;;;;;;23.19;41.78;94592.94;4995878;28;20228;-74
2022/08/10 09:09:37;;;;;;;3.85;1.67;;;;;;;23.50;40.81;94594.72;5011823;28;20251;-71
2022/08/10 09:13:00;;;;;;;3.13;1.10;;;;;;;23.18;40.56;94585.75;5008404;28;20239;-66
2022/08/10 09:15:55;;;;;;;3.92;1.40;;;;;;;23.94;40.59;94587.59;5004707;28;20200;-69
2022/08/10 09:18:51;;;;;;;1.70;1.30;;;;;;;23.60;40.40;94587.22;5002542;28;20192;-69
2022/08/10 09:21:53;;;;;;;6.82;1.80;;;;;;;23.56;40.05;94578.50;5004898;28;20451;-72
2022/08/10 09:25:05;;;;;;;2.53;1.50;;;;;;;24.13;40.58;94588.91;4998123;28;20200;-69
2022/08/10 09:28:15;;;;;;;6.35;1.48;;;;;;;23.54;38.20;94589.13;5004597;28;20228;-72
2022/08/10 09:31:07;;;;;;;1.88;1.20;;;;;;;23.72;39.88;94581.88;5007567;28;20195;-68
2022/08/10 09:34:04;;;;;;;5.28;1.60;;;;;;;23.78;39.63;94579.22;5007754;28;20200;-71
2022/08/10 09:37:07;;;;;;;7.78;1.40;;;;;;;23.77;39.23;94580.59;5000491;28;20204;-72
2022/08/10 09:39:57;;;;;;;3.25;1.23;;;;;;;24.13;38.30;94583.19;5008167;28;20361;-72
2022/08/10 09:42:50;;;;;;;3.33;1.20;;;;;;;24.03;37.97;94585.72;5006300;28;20200;-70
2022/08/10 09:46:13;;;;;;;2.67;1.15;;;;;;;24.67;37.87;94580.50;4996094;28;20686;-80
2022/08/10 09:49:27;;;;;;;1.35;1.17;;;;;;;24.52;37.20;94587.94;5002221;28;20219;-74
2022/08/10 09:52:20;;;;;;;2.35;1.08;;;;;;;23.77;37.64;94577.75;5007367;28;20208;-69
2022/08/10 09:55:31;;;;;;;9.75;1.30;;;;;;;23.95;38.08;94577.59;4999508;28;20200;-72
2022/08/10 09:58:40;;;;;;;3.55;1.10;;;;;;;24.19;37.79;94574.81;5002902;28;20207;-72
2022/08/10 10:01:36;;;;;;;4.82;1.15;;;;;;;24.63;36.85;94586.13;5009853;28;20208;-74
2022/08/10 10:04:41;;;;;;;4.53;1.40;;;;;;;24.58;37.14;94594.59;4996371;28;20274;-71
2022/08/10 10:07:27;;;;;;;2.80;1.02;;;;;;;24.55;37.52;94581.63;5004980;28;20220;-69
2022/08/10 10:10:18;;;;;;;1.92;1.23;;;;;;;24.38;37.47;94579.66;5009155;28;20685;-72
2022/08/10 10:13:12;;;;;;;3.53;1.27;;;;;;;24.53;37.20;94584.41;4999672;28;20207;-69
2022/08/10 10:16:24;;;;;;;3.33;1.45;;;;;;;24.83;37.24;94572.34;5004581;28;20208;-69
2022/08/10 10:19:36;;;;;;;6.95;1.35;;;;;;;24.92;38.20;94576.94;5009660;28;20290;-69
2022/08/10 10:22:40;;;;;;;8.00;1.15;;;;;;;24.95;36.97;94587.06;5006299;28;20653;-72
2022/08/10 10:25:35;;;;;;;2.63;1.27;;;;;;;25.12;38.06;94577.50;4999446;28;20657;-68
2022/08/10 10:28:31;;;;;;;2.92;1.10;;;;;;;25.10;37.24;94571.72;5007481;28;20223;-70
2022/08/10 10:31:29;;;;;;;2.30;1.25;;;;;;;25.47;35.78;94587.03;5004670;28;20712;-71
2022/08/10 10:34:38;;;;;;;6.10;1.50;;;;;;;25.60;35.28;94577.34;5007230;28;20212;-72
2022/08/10 10:37:24;;;;;;;1.95;1.00;;;;;;;25.09;36.75;94573.13;4998156;28;20270;-70
2022/08/10 10:40:08;;;;;;;1.70;1.23;;;;;;;24.94;37.24;94572.00;5008065;28;20237;-70
2022/08/10 10:43:06;;;;;;;2.20;1.25;;;;;;;25.95;34.61;94576.78;4996015;28;20219;-71
2022/08/10 10:46:08;;;;;;;5.30;1.20;;;;;;;25.77;35.77;94574.19;4993572;28;20665;-71
2022/08/10 10:49:11;;;;;;;1.77;1.10;;;;;;;26.30;35.79;94577.59;4999998;28;20579;-71
2022/08/10 10:52:13;;;;;;;5.60;1.17;;;;;;;25.82;34.60;94568.53;4998052;28;20196;-68
2022/08/10 10:55:11;;;;;;;6.03;1.00;;;;;;;25.17;36.24;94555.41;5005634;28;20214;-72
2022/08/10 10:58:03;;;;;;;2.33;1.35;;;;;;;25.11;36.79;94558.84;4999803;28;20271;-76
2022/08/10 11:00:59;;;;;;;8.00;1.20;;;;;;;26.21;36.03;94555.81;5008246;28;20278;-70
2022/08/10 11:03:55;;;;;;;2.13;1.00;;;;;;;25.68;34.96;94571.78;5003312;28;20199;-71
2022/08/10 11:07:09;;;;;;;4.70;1.17;;;;;;;25.52;35.24;94565.63;5003742;28;20631;-70
2022/08/10 11:10:01;;;;;;;3.45;1.35;;;;;;;25.48;35.19;94571.28;4992323;28;20223;-69
2022/08/10 11:13:17;;;;;;;2.13;1.13;;;;;;;25.78;36.56;94557.69;5000408;28;20353;-70
2022/08/10 11:16:27;;;;;;;1.27;1.05;;;;;;;25.63;35.86;94564.50;5003047;28;20253;-70
2022/08/10 11:19:16;;;;;;;3.03;1.15;;;;;;;25.94;34.73;94581.06;4995043;28;20199;-74
2022/08/10 11:22:21;;;;;;;2.08;1.02;;;;;;;25.76;34.83;94577.75;5005267;28;20683;-73
2022/08/10 11:25:15;;;;;;;5.30;1.30;;;;;;;26.03;34.52;94571.22;4995558;28;20193;-72
2022/08/10 11:28:13;;;;;;;2.13;1.23;;;;;;;25.90;34.27;94578.09;4989410;28;20299;-72
2022/08/10 11:31:09;;;;;;;3.03;1.00;;;;;;;25.94;33.96;94569.56;5021901;28;20203;-71
2022/08/10 11:34:01;;;;;;;3.53;1.20;;;;;;;25.76;33.28;94566.25;4997544;28;20907;-71
2022/08/10 11:37:03;;;;;;;0.88;0.80;;;;;;;25.52;33.41;94572.09;4998048;28;20200;-69
2022/08/10 11:39:56;;;;;;;6.10;1.00;;;;;;;25.54;32.31;94568.56;5005345;28;20198;-71
2022/08/10 11:42:48;;;;;;;7.72;1.20;;;;;;;25.98;31.30;94569.69;5002879;28;20200;-72
2022/08/10 11:45:35;;;;;;;2.03;0.63;;;;;;;26.73;30.98;94562.00;5006679;28;20207;-70
2022/08/10 11:48:41;;;;;;;4.20;1.05;;;;;;;26.61;31.85;94562.47;5002198;28;20224;-71
2022/08/10 11:51:54;;;;;;;4.00;1.00;;;;;;;26.50;32.11;94570.16;5006367;28;20712;-71
2022/08/10 11:54:55;;;;;;;2.55;1.02;;;;;;;26.41;34.23;94567.81;4998198;28;20208;-71
2022/08/10 11:57:42;;;;;;;4.15;1.10;;;;;;;26.05;34.63;94551.16;5004052;28;20192;-69
2022/08/10 12:00:30;;;;;;;5.43;1.10;;;;;;;27.15;33.51;94560.00;4988775;28;20227;-71
2022/08/10 12:03:16;;;;;;;4.43;1.30;;;;;;;26.85;34.61;94556.47;4995482;28;20204;-72
2022/08/10 12:06:04;;;;;;;5.30;1.25;;;;;;;26.63;34.95;94556.78;5009249;28;20612;-72
2022/08/10 12:08:51;;;;;;;2.88;1.20;;;;;;;26.54;35.67;94558.00;5001990;28;20716;-68
2022/08/10 12:11:35;;;;;;;2.83;1.08;;;;;;;26.44;36.11;94563.53;4998037;28;20223;-71
2022/08/10 12:14:32;;;;;;;3.25;1.20;;;;;;;26.54;36.09;94558.00;5002340;28;20346;-70
2022/08/10 12:17:31;;;;;;;2.38;1.00;;;;;;;26.18;35.36;94563.66;5001952;28;20208;-72
2022/08/10 12:20:30;;;;;;;2.13;1.23;;;;;;;26.62;36.40;94558.19;5008634;28;20621;-70
2022/08/10 12:23:29;;;;;;;1.63;1.00;;;;;;;26.95;35.63;94554.59;5009040;28;20208;-73
2022/08/10 12:26:35;;;;;;;7.40;1.42;;;;;;;26.45;35.81;94562.88;5002417;28;20227;-72
2022/08/10 12:29:36;;;;;;;1.98;1.05;;;;;;;26.25;36.27;94561.69;5007921;28;20237;-70
2022/08/10 12:32:37;;;;;;;2.88;1.17;;;;;;;26.75;36.22;94565.66;5006721;28;20583;-73
2022/08/10 12:35:25;;;;;;;3.72;1.20;;;;;;;26.33;35.78;94567.63;5002899;28;20274;-74
2022/08/10 12:38:21;;;;;;;2.70;1.10;;;;;;;26.14;36.03;94581.53;5007616;28;20774;-72
2022/08/10 12:41:33;;;;;;;2.53;1.15;;;;;;;25.62;37.08;94563.03;4989801;28;20211;-74
2022/08/10 12:44:26;;;;;;;5.05;1.58;;;;;;;26.17;34.97;94562.91;5000244;28;20201;-70
2022/08/10 12:47:17;;;;;;;3.08;1.40;;;;;;;25.97;34.92;94561.75;5001115;28;20203;-71
2022/08/10 12:50:09;;;;;;;2.55;1.10;;;;;;;26.42;35.12;94558.47;5009390;28;20211;-70
2022/08/10 12:53:20;;;;;;;2.22;1.20;;;;;;;25.86;35.87;94562.91;5001515;28;20208;-71
2022/08/10 12:56:05;;;;;;;3.55;0.90;;;;;;;25.40;34.67;94557.44;5010636;28;20203;-73
2022/08/10 12:58:49;;;;;;;7.35;1.60;;;;;;;25.43;36.42;94555.38;5004567;28;20567;-71
2022/08/10 13:01:36;;;;;;;1.20;1.00;;;;;;;24.86;36.01;94550.97;5002404;28;20196;-73
2022/08/10 13:04:30;;;;;;;2.70;1.08;;;;;;;25.24;36.36;94560.59;5006679;28;20223;-71
2022/08/10 13:07:24;;;;;;;4.85;1.02;;;;;;;24.89;37.14;94555.34;5001028;28;20564;-72
2022/08/10 13:10:11;;;;;;;10.65;1.27;;;;;;;25.09;37.72;94550.19;5002166;28;20208;-73
2022/08/10 13:12:57;;;;;;;2.47;1.17;;;;;;;25.52;36.21;94559.88;5000044;28;20219;-72
2022/08/10 13:15:45;;;;;;;2.22;1.13;;;;;;;26.12;36.27;94558.50;4989715;28;20278;-72
2022/08/10 13:18:36;;;;;;;6.95;1.25;;;;;;;26.48;34.90;94555.00;5002965;28;20192;-72
2022/08/10 13:21:25;;;;;;;7.57;1.30;;;;;;;26.45;34.45;94550.63;5007770;28;20298;-74
2022/08/10 13:24:13;;;;;;;2.33;1.00;;;;;;;26.13;34.71;94539.84;5004374;28;20258;-72
2022/08/10 13:27:02;;;;;;;10.65;1.58;;;;;;;26.38;34.91;94552.66;5006058;28;20204;-73
2022/08/10 13:30:06;;;;;;;10.75;2.00;;;;;;;26.61;33.79;94550.97;5002526;28;20208;-74